• Join FlightAware (Why Join?)
  • Login
  • US Flag 
02:09AM EDT


 

Airport Tracker/Info


-or-


 

Live Flight TrackerFlight Track Log ✈ N465TP ✈ 24-Oct-2013 ✈ KCOD - 11WY

Flight Track Log - Related Links

Times and Time Zones

All times are in EDT time to prevent confusion due to time zone crossing. See the N465TP flight status page for this flight to view local times or setup timezone preferences in your user account.

Time Position Orientation Groundspeed Altitude Reporting Facility
EDT Latitude Longitude Course Direction KTS MPH feet Rate Location/Type
06:38PM 44.5397 -108.8697 81° East 156 180 8,900  Level Salt Lake Center
06:39PM 44.5475 -108.8028 81° East 164 189 10,100 1,260 Climbing Salt Lake Center
06:41PM 44.5564 -108.7317 80° East 175 201 11,500 1,440 Climbing Salt Lake Center
06:42PM 44.5647 -108.6606 81° East 182 209 13,100 1,380 Climbing Salt Lake Center
06:43PM 44.5736 -108.5911 80° East 182 209 14,400 1,380 Climbing Salt Lake Center
06:44PM 44.5836 -108.5061 81° East 184 212 16,000 1,260 Climbing Salt Lake Center
06:45PM 44.5919 -108.4325 81° East 187 215 17,100 1,020 Climbing Salt Lake Center
06:46PM 44.6008 -108.3561 81° East 193 222 18,200 1,020 Climbing Salt Lake Center
06:47PM 44.6094 -108.2767 81° East 202 232 19,300 1,080 Climbing Salt Lake Center
06:48PM 44.6183 -108.1986 81° East 204 235 20,500 780 Climbing Salt Lake Center
06:49PM 44.6275 -108.1147 81° East 213 245 21,000 240 Climbing Salt Lake Center
06:50PM 44.6367 -108.0200 82° East 232 267 21,000  Level Salt Lake Center
06:51PM 44.6511 -107.8997 80° East 252 290 21,000  Level Salt Lake Center
06:52PM 44.6628 -107.7981 81° East 262 302 21,000  Level Salt Lake Center
06:53PM 44.6747 -107.6967 81° East 265 305 21,000  Level Salt Lake Center
06:54PM 44.6869 -107.5964 80° East 264 304 21,000  Level Salt Lake Center
06:55PM 44.6981 -107.4953 81° East 264 304 21,000  Level Salt Lake Center
06:56PM 44.7114 -107.3717 81° East 267 307 21,000  Level Salt Lake Center
06:57PM 44.7233 -107.2708 81° East 266 306 21,000  Level Salt Lake Center
06:58PM 44.7339 -107.1697 82° East 263 303 21,000  Level Salt Lake Center
06:59PM 44.7453 -107.0697 81° East 262 302 21,000  Level Salt Lake Center
07:00PM 44.7553 -106.9692 82° East 262 302 21,000  Level Salt Lake Center
07:01PM 44.7669 -106.8692 81° East 260 299 21,000  Level Salt Lake Center
07:02PM 44.7792 -106.7492 82° East 260 299 21,000  Level Salt Lake Center
07:03PM 44.7894 -106.6475 82° East 262 302 21,000  Level Salt Lake Center
07:04PM 44.8000 -106.5475 82° East 261 300 21,000  Level Salt Lake Center
07:05PM 44.8103 -106.4467 82° East 262 302 21,000  Level Salt Lake Center
07:06PM 44.8208 -106.3447 82° East 262 302 21,000  Level Salt Lake Center
07:07PM 44.8303 -106.2419 83° East 265 305 21,000  Level Salt Lake Center
07:08PM 44.8406 -106.1422 82° East 260 299 21,000  Level Salt Lake Center
07:09PM 44.8525 -106.0197 82° East 262 302 21,000  Level Salt Lake Center
07:10PM 44.8589 -105.9389 84° East 264 304 21,000  Level Denver Center
07:11PM 44.8689 -105.8367 82° East 264 304 21,000  Level Denver Center
07:12PM 44.8783 -105.7344 83° East 264 304 21,000 -780 Level Denver Center
07:13PM 44.8897 -105.6133 82° East 259 298 19,300 -1,500 Descending Salt Lake Center
07:14PM 44.8986 -105.5169 83° East 252 290 17,800 -1,620 Descending Salt Lake Center
07:15PM 44.9083 -105.4253 81° East 242 278 16,000 -1,800 Descending Salt Lake Center